Time;durP1;ratioP1;P1;durP2;ratioP2;P2;SDS_P1;SDS_P2;PMS_P1;PMS_P2;Temp;Humidity;BMP_temperature;BMP_pressure;BME280_temperature;BME280_humidity;BME280_pressure;Samples;Min_cycle;Max_cycle;Signal;HPM_P1;HPM_P2
2023/09/13 00:02:05;;;;;;;21.27;11.77;;;;;;;13.77;63.48;100416.19;5053121;28;20112;-55
2023/09/13 00:04:30;;;;;;;25.52;11.68;;;;;;;13.73;63.79;100411.19;5050858;28;20116;-57
2023/09/13 00:06:56;;;;;;;21.42;11.40;;;;;;;13.67;63.98;100400.97;5052839;28;20106;-55
2023/09/13 00:09:21;;;;;;;24.00;11.98;;;;;;;13.64;63.96;100402.94;5032013;28;20069;-56
2023/09/13 00:11:47;;;;;;;16.77;11.65;;;;;;;13.56;64.16;100402.72;5047025;28;20056;-61
2023/09/13 00:14:13;;;;;;;23.40;11.82;;;;;;;13.52;64.25;100397.72;5051855;28;20109;-59
2023/09/13 00:16:39;;;;;;;24.08;11.70;;;;;;;13.48;64.55;100405.19;5051357;28;21081;-59
2023/09/13 00:19:06;;;;;;;25.80;11.48;;;;;;;13.43;64.84;100404.72;5052576;28;20048;-58
2023/09/13 00:21:32;;;;;;;24.52;12.02;;;;;;;13.40;64.87;100410.34;5052585;28;20033;-58
2023/09/13 00:23:58;;;;;;;19.98;10.88;;;;;;;13.38;65.22;100406.94;5052243;28;20520;-56
2023/09/13 00:26:24;;;;;;;23.95;11.75;;;;;;;13.32;65.24;100406.47;5051676;28;20064;-56
2023/09/13 00:28:51;;;;;;;22.23;11.88;;;;;;;13.13;65.31;100372.16;5052187;28;20463;-57
2023/09/13 00:31:17;;;;;;;17.67;10.98;;;;;;;13.23;65.29;100391.06;5052541;28;20041;-57
2023/09/13 00:33:42;;;;;;;21.13;11.32;;;;;;;13.30;65.50;100403.06;5052234;28;20111;-52
2023/09/13 00:36:08;;;;;;;18.30;12.07;;;;;;;13.28;65.43;100401.47;5052154;28;20025;-57
2023/09/13 00:38:33;;;;;;;22.00;12.60;;;;;;;13.27;65.63;100408.69;5052458;28;20029;-54
2023/09/13 00:40:59;;;;;;;21.85;11.32;;;;;;;13.25;65.57;100407.09;5051805;28;20040;-53
2023/09/13 00:43:25;;;;;;;20.30;12.05;;;;;;;13.27;65.84;100413.19;5051921;28;20036;-54
2023/09/13 00:45:51;;;;;;;18.48;11.70;;;;;;;13.28;65.77;100412.22;5052209;28;20115;-61
2023/09/13 00:48:17;;;;;;;25.05;11.90;;;;;;;13.25;65.81;100407.94;5052143;28;20033;-57
2023/09/13 00:50:46;;;;;;;24.30;12.32;;;;;;;13.17;65.64;100387.09;5051664;28;20036;-57
2023/09/13 00:53:13;;;;;;;20.17;11.50;;;;;;;13.32;65.93;100424.41;5052532;28;20317;-57
2023/09/13 00:55:39;;;;;;;18.70;12.02;;;;;;;13.38;65.58;100417.69;5051590;28;20044;-57
2023/09/13 00:58:05;;;;;;;20.50;11.90;;;;;;;13.30;65.83;100426.38;5050928;28;20028;-57
2023/09/13 01:00:34;;;;;;;19.88;12.38;;;;;;;13.26;66.35;100412.34;5050948;28;20057;-58
2023/09/13 01:03:01;;;;;;;20.00;12.80;;;;;;;12.98;66.50;100373.44;5051776;28;20097;-57
2023/09/13 01:05:27;;;;;;;19.85;12.40;;;;;;;13.23;66.48;100415.28;5050254;28;20063;-61
2023/09/13 01:07:53;;;;;;;22.20;12.30;;;;;;;13.19;66.61;100416.50;5052049;28;20124;-65
2023/09/13 01:10:19;;;;;;;21.15;12.00;;;;;;;13.17;66.75;100405.91;5052338;28;20044;-58
2023/09/13 01:12:46;;;;;;;24.83;12.52;;;;;;;13.07;67.08;100395.06;5051674;28;20466;-61
2023/09/13 01:15:12;;;;;;;24.48;12.20;;;;;;;13.11;67.07;100419.00;5051354;28;20037;-62
2023/09/13 01:17:56;;;;;;;25.23;13.55;;;;;;;13.10;67.14;100411.91;5051959;28;20513;-61
2023/09/13 01:20:33;;;;;;;23.83;12.48;;;;;;;13.10;67.16;100410.06;5052269;28;20072;-61
2023/09/13 01:23:32;;;;;;;25.50;12.40;;;;;;;13.16;67.38;100408.69;5051047;28;20036;-60
2023/09/13 01:26:20;;;;;;;24.77;12.77;;;;;;;13.12;67.44;100404.56;5040950;28;20402;-63
2023/09/13 01:28:47;;;;;;;25.13;12.63;;;;;;;12.80;67.56;100375.81;5051709;28;20452;-62
2023/09/13 01:31:17;;;;;;;23.85;13.02;;;;;;;12.97;67.46;100415.56;5051852;28;20029;-62
2023/09/13 01:33:44;;;;;;;23.92;13.98;;;;;;;12.91;68.04;100405.34;5051714;28;20410;-61
2023/09/13 01:36:09;;;;;;;26.23;13.20;;;;;;;12.86;67.89;100396.81;5050676;28;20024;-61
2023/09/13 01:38:35;;;;;;;26.77;14.15;;;;;;;12.72;68.09;100376.44;5050582;28;20166;-62
2023/09/13 01:41:10;;;;;;;28.17;13.02;;;;;;;12.99;68.15;100407.41;5051171;28;20036;-61
2023/09/13 01:43:37;;;;;;;25.45;13.18;;;;;;;12.89;68.27;100413.50;5051731;28;20048;-57
2023/09/13 01:46:03;;;;;;;24.90;12.43;;;;;;;12.81;68.29;100404.38;5051364;28;20460;-57
2023/09/13 01:48:30;;;;;;;20.48;13.80;;;;;;;12.85;68.43;100413.91;5051806;28;20021;-58
2023/09/13 01:50:57;;;;;;;25.00;13.27;;;;;;;12.82;68.74;100406.09;5051751;28;20337;-59
2023/09/13 01:53:23;;;;;;;21.75;13.00;;;;;;;12.74;68.65;100401.34;5050846;28;20029;-60
2023/09/13 01:55:48;;;;;;;22.67;13.82;;;;;;;12.60;69.00;100383.66;5050627;28;20114;-60
2023/09/13 01:58:14;;;;;;;26.77;14.27;;;;;;;12.76;69.15;100418.19;5050425;28;20140;-61
2023/09/13 02:00:42;;;;;;;26.70;13.77;;;;;;;12.85;68.92;100424.66;5053599;28;20049;-62
2023/09/13 02:03:08;;;;;;;23.63;14.40;;;;;;;12.93;68.62;100419.50;5055044;28;20040;-56
2023/09/13 02:05:33;;;;;;;23.27;14.18;;;;;;;12.89;68.63;100431.47;5053978;28;20360;-57
2023/09/13 02:07:59;;;;;;;25.85;14.27;;;;;;;12.84;68.75;100431.84;5054622;28;20049;-59
2023/09/13 02:10:24;;;;;;;27.98;14.98;;;;;;;12.78;69.09;100435.03;5055175;28;20116;-52
2023/09/13 02:12:50;;;;;;;27.85;14.63;;;;;;;12.74;69.24;100423.66;5055395;28;20128;-56
2023/09/13 02:15:16;;;;;;;26.20;14.55;;;;;;;12.73;69.52;100430.03;5055075;28;20033;-54
2023/09/13 02:17:42;;;;;;;24.83;15.40;;;;;;;12.73;69.53;100429.19;5054985;28;20421;-54
2023/09/13 02:20:11;;;;;;;30.63;15.95;;;;;;;12.69;69.59;100433.94;5054808;28;20089;-54
2023/09/13 02:22:37;;;;;;;27.85;16.40;;;;;;;12.63;69.92;100429.06;5054470;28;20032;-55
2023/09/13 02:25:03;;;;;;;24.10;15.57;;;;;;;12.63;69.96;100426.38;5054900;28;20392;-56
2023/09/13 02:27:29;;;;;;;29.15;15.80;;;;;;;12.36;70.06;100390.00;5055025;28;20029;-51
2023/09/13 02:29:54;;;;;;;25.60;15.80;;;;;;;12.38;70.11;100395.22;5054976;28;20033;-56
2023/09/13 02:32:20;;;;;;;32.70;17.65;;;;;;;12.58;70.08;100437.47;5054581;28;20036;-56
2023/09/13 02:34:46;;;;;;;30.63;16.52;;;;;;;12.50;70.34;100431.88;5054544;28;20033;-57
2023/09/13 02:37:11;;;;;;;28.50;16.80;;;;;;;12.45;70.31;100421.47;5054499;28;20033;-57
2023/09/13 02:39:38;;;;;;;28.77;16.58;;;;;;;12.43;70.41;100420.75;5054291;28;20102;-60
2023/09/13 02:42:06;;;;;;;35.55;17.52;;;;;;;12.46;70.48;100423.19;5054427;28;20414;-55
2023/09/13 02:44:32;;;;;;;29.63;17.63;;;;;;;12.43;70.51;100423.44;5054428;28;20056;-56
2023/09/13 02:46:58;;;;;;;30.83;18.13;;;;;;;12.42;70.55;100435.16;5053873;28;20029;-66
2023/09/13 02:49:24;;;;;;;37.53;17.70;;;;;;;12.39;70.77;100432.72;5054416;28;20032;-58
2023/09/13 02:51:51;;;;;;;29.23;17.30;;;;;;;12.41;70.79;100433.44;5054274;28;20029;-56
2023/09/13 02:54:17;;;;;;;31.15;17.90;;;;;;;12.34;71.03;100424.19;5054081;28;20040;-55
2023/09/13 02:56:43;;;;;;;28.92;17.90;;;;;;;12.34;70.79;100424.19;5054359;28;20025;-56
2023/09/13 02:59:09;;;;;;;33.92;17.83;;;;;;;12.34;71.08;100430.38;5053264;28;20450;-62
2023/09/13 03:01:34;;;;;;;26.33;17.60;;;;;;;12.34;70.69;100425.00;5054001;28;20053;-57
2023/09/13 03:04:00;;;;;;;30.60;17.27;;;;;;;12.20;70.94;100391.19;5053933;28;20118;-63
2023/09/13 03:06:25;;;;;;;27.88;17.45;;;;;;;12.36;70.99;100419.53;5054248;28;20463;-58
2023/09/13 03:08:51;;;;;;;26.58;17.63;;;;;;;12.39;70.96;100421.97;5053828;28;20031;-58
2023/09/13 03:11:21;;;;;;;28.77;17.52;;;;;;;12.43;70.80;100423.44;5052750;28;20029;-61
2023/09/13 03:13:47;;;;;;;33.83;17.83;;;;;;;12.44;70.92;100422.47;5053942;28;20051;-57
2023/09/13 03:16:18;;;;;;;31.05;17.55;;;;;;;12.35;70.71;100399.03;5054284;28;20037;-61
2023/09/13 03:18:46;;;;;;;32.17;17.48;;;;;;;12.41;70.59;100422.72;5054029;28;20056;-61
2023/09/13 03:21:13;;;;;;;34.65;17.73;;;;;;;12.55;70.58;100423.47;5052847;28;20486;-62
2023/09/13 03:23:40;;;;;;;34.25;17.75;;;;;;;12.52;70.33;100395.00;5053730;28;20494;-61
2023/09/13 03:26:12;;;;;;;33.35;18.45;;;;;;;13.06;69.38;100435.47;5052607;28;20037;-59
2023/09/13 03:28:38;;;;;;;31.50;16.98;;;;;;;13.23;68.29;100428.72;5053579;28;20175;-53
2023/09/13 03:31:09;;;;;;;27.33;17.27;;;;;;;13.42;67.90;100437.97;5053826;28;20096;-53
2023/09/13 03:33:34;;;;;;;30.63;17.13;;;;;;;13.90;66.50;100431.31;5053497;28;20029;-55
2023/09/13 03:36:00;;;;;;;29.15;16.45;;;;;;;14.74;63.56;100433.09;5053730;28;20112;-56
2023/09/13 03:38:25;;;;;;;28.65;16.70;;;;;;;15.69;60.52;100434.53;5053191;28;20037;-59
2023/09/13 03:40:51;;;;;;;46.17;17.70;;;;;;;16.53;57.59;100429.41;5053633;28;20063;-57
2023/09/13 03:43:16;;;;;;;28.65;17.08;;;;;;;17.39;54.96;100430.13;5053700;28;20033;-57
2023/09/13 03:46:03;;;;;;;29.80;17.25;;;;;;;18.26;52.67;100429.50;5053321;28;20502;-57
2023/09/13 03:48:30;;;;;;;26.00;16.02;;;;;;;18.99;50.17;100430.91;5053525;28;20052;-60
2023/09/13 03:50:56;;;;;;;27.95;16.30;;;;;;;19.65;48.54;100433.78;5052588;28;20033;-58
2023/09/13 03:53:22;;;;;;;24.85;14.98;;;;;;;19.95;46.90;100384.41;5052841;28;20479;-59
2023/09/13 03:55:47;;;;;;;25.38;15.98;;;;;;;20.78;45.36;100422.25;5053278;28;20032;-54
2023/09/13 03:58:13;;;;;;;28.98;15.18;;;;;;;21.40;43.81;100427.91;5053434;28;20029;-56
2023/09/13 04:00:38;;;;;;;23.25;15.18;;;;;;;21.93;42.54;100428.03;5051955;28;20029;-53
2023/09/13 04:03:04;;;;;;;24.23;15.40;;;;;;;22.34;41.49;100434.97;5052334;28;20039;-59
2023/09/13 04:05:30;;;;;;;24.92;14.98;;;;;;;22.80;40.25;100407.53;5052954;28;20083;-57
2023/09/13 04:07:58;;;;;;;24.90;15.50;;;;;;;23.48;39.38;100439.22;5053368;28;20032;-54
2023/09/13 04:10:24;;;;;;;25.50;15.30;;;;;;;23.89;37.87;100431.41;5052853;28;20375;-61
2023/09/13 04:12:50;;;;;;;25.83;16.00;;;;;;;24.39;36.67;100427.81;5052505;28;20041;-56
2023/09/13 04:15:16;;;;;;;26.92;15.68;;;;;;;24.85;35.72;100437.38;5052598;28;20033;-59
2023/09/13 04:17:41;;;;;;;25.35;14.40;;;;;;;25.45;34.78;100436.72;5053164;28;20033;-59
2023/09/13 04:20:08;;;;;;;25.10;14.88;;;;;;;26.12;33.63;100441.44;5051879;28;20428;-55
2023/09/13 04:22:34;;;;;;;21.35;14.45;;;;;;;26.66;32.07;100442.22;5052166;28;20370;-58
2023/09/13 04:24:59;;;;;;;24.33;14.73;;;;;;;27.15;31.57;100447.38;5052490;28;20024;-56
2023/09/13 04:27:25;;;;;;;22.80;14.63;;;;;;;27.55;30.83;100454.56;5052379;28;20045;-56
2023/09/13 04:29:54;;;;;;;21.17;13.98;;;;;;;28.01;29.88;100447.06;5052490;28;20040;-57
2023/09/13 04:32:20;;;;;;;24.27;14.98;;;;;;;28.38;29.40;100441.66;5051167;28;20049;-55
2023/09/13 04:34:46;;;;;;;26.42;14.27;;;;;;;28.90;28.57;100451.50;5052029;28;20036;-57
2023/09/13 04:37:12;;;;;;;23.63;14.57;;;;;;;29.29;27.60;100446.53;5052190;28;20352;-56
2023/09/13 04:39:38;;;;;;;25.42;14.48;;;;;;;29.78;27.34;100451.16;5052231;28;20086;-59
2023/09/13 04:42:06;;;;;;;25.13;14.15;;;;;;;30.22;26.90;100456.41;5052076;28;20045;-59
2023/09/13 04:44:31;;;;;;;23.42;14.65;;;;;;;30.87;25.75;100450.97;5051271;28;20037;-56
2023/09/13 04:46:57;;;;;;;26.40;14.15;;;;;;;31.57;24.49;100464.78;5051501;28;20350;-57
2023/09/13 04:49:23;;;;;;;23.17;14.07;;;;;;;31.78;23.72;100421.72;5050272;28;20367;-58
2023/09/13 04:51:49;;;;;;;29.42;13.98;;;;;;;32.34;23.59;100457.81;5051710;28;20029;-55
2023/09/13 04:54:14;;;;;;;24.42;14.45;;;;;;;32.99;22.54;100449.00;5051944;28;20037;-50
2023/09/13 04:56:40;;;;;;;23.08;14.50;;;;;;;33.66;21.75;100448.06;5051461;28;20079;-57
2023/09/13 04:59:05;;;;;;;26.20;14.35;;;;;;;34.07;21.34;100446.47;5050770;28;20104;-63
2023/09/13 05:01:31;;;;;;;23.38;13.32;;;;;;;34.17;20.74;100454.06;5050866;28;20033;-57
2023/09/13 05:03:58;;;;;;;24.58;14.15;;;;;;;34.52;20.68;100451.81;5051120;28;20398;-54
2023/09/13 05:06:24;;;;;;;25.25;13.15;;;;;;;34.68;20.31;100444.38;5051951;28;20036;-58
2023/09/13 05:08:52;;;;;;;24.60;13.27;;;;;;;35.17;19.95;100456.28;5050942;28;20033;-58
2023/09/13 05:11:17;;;;;;;27.65;14.43;;;;;;;35.38;19.57;100439.63;5050860;28;20029;-59
2023/09/13 05:13:47;;;;;;;23.60;14.27;;;;;;;35.70;19.21;100449.72;5050374;28;20474;-58
2023/09/13 05:16:14;;;;;;;24.17;13.75;;;;;;;36.34;18.76;100456.66;5051871;28;20037;-58
2023/09/13 05:18:40;;;;;;;27.50;13.90;;;;;;;36.85;17.94;100446.47;5051506;28;20359;-60
2023/09/13 05:21:05;;;;;;;23.85;14.43;;;;;;;37.61;17.10;100446.34;5051988;28;20029;-59
2023/09/13 05:23:31;;;;;;;29.05;14.02;;;;;;;37.96;16.72;100411.97;5051157;28;20047;-58
2023/09/13 05:25:56;;;;;;;20.98;13.38;;;;;;;38.24;16.61;100443.88;5051813;28;20037;-58
2023/09/13 05:28:22;;;;;;;21.35;11.60;;;;;;;38.11;16.48;100450.16;5051509;28;20080;-58
2023/09/13 05:30:49;;;;;;;18.00;11.82;;;;;;;38.10;16.56;100429.72;5051095;28;20297;-56
2023/09/13 05:33:15;;;;;;;17.95;11.80;;;;;;;38.94;16.16;100444.50;5051530;28;20041;-55
2023/09/13 05:35:40;;;;;;;18.63;12.23;;;;;;;39.68;15.15;100447.91;5050750;28;20036;-57
2023/09/13 05:38:06;;;;;;;17.65;11.52;;;;;;;40.32;14.60;100438.97;5051715;28;20025;-59
2023/09/13 05:40:31;;;;;;;16.42;11.27;;;;;;;40.70;14.47;100435.94;5050597;28;20045;-63
2023/09/13 05:42:58;;;;;;;17.80;11.50;;;;;;;40.74;14.05;100434.19;5050209;28;20029;-61
2023/09/13 05:45:23;;;;;;;16.48;11.13;;;;;;;40.96;14.13;100443.00;5050890;28;20060;-63
2023/09/13 05:47:50;;;;;;;17.13;11.00;;;;;;;41.60;13.58;100448.56;5051248;28;20086;-62
2023/09/13 05:50:15;;;;;;;20.90;11.50;;;;;;;41.70;13.33;100430.63;5051528;28;20032;-62
2023/09/13 05:52:41;;;;;;;17.52;11.52;;;;;;;42.07;13.00;100438.13;5051662;28;20032;-61
2023/09/13 05:55:10;;;;;;;15.43;10.75;;;;;;;42.73;13.13;100434.59;5051920;28;20178;-61
2023/09/13 05:57:35;;;;;;;16.85;11.30;;;;;;;43.06;12.41;100410.81;5051934;28;20025;-62
2023/09/13 06:00:01;;;;;;;16.20;11.63;;;;;;;43.52;12.00;100414.13;5051386;28;20067;-61
2023/09/13 06:02:26;;;;;;;16.08;11.45;;;;;;;43.66;11.91;100439.34;5051293;28;20040;-61
2023/09/13 06:04:52;;;;;;;18.33;10.15;;;;;;;44.00;11.56;100440.44;5050308;28;20029;-62
2023/09/13 06:07:17;;;;;;;15.90;10.00;;;;;;;43.63;11.60;100415.44;5051129;28;20033;-60
2023/09/13 06:09:43;;;;;;;15.63;10.32;;;;;;;43.58;11.63;100441.81;5051320;28;20375;-62
2023/09/13 06:12:09;;;;;;;18.13;10.57;;;;;;;43.36;11.73;100440.03;5051540;28;20418;-61
2023/09/13 06:14:36;;;;;;;13.45;10.30;;;;;;;43.54;11.71;100442.84;5051592;28;20044;-63
2023/09/13 06:17:02;;;;;;;11.48;8.95;;;;;;;43.77;11.37;100442.63;5051447;28;20440;-63
2023/09/13 06:19:27;;;;;;;14.15;10.02;;;;;;;44.17;11.49;100445.22;5051042;28;20039;-62
2023/09/13 06:21:53;;;;;;;13.15;9.80;;;;;;;44.95;10.83;100443.19;5050895;28;20024;-63
2023/09/13 06:24:19;;;;;;;10.90;8.63;;;;;;;45.39;10.49;100442.03;5051317;28;20048;-63
2023/09/13 06:26:44;;;;;;;12.13;9.95;;;;;;;45.53;10.37;100445.38;5050840;28;20061;-63
2023/09/13 06:29:10;;;;;;;15.00;10.45;;;;;;;45.54;10.25;100438.53;5050677;28;20444;-64
2023/09/13 06:31:36;;;;;;;13.52;10.57;;;;;;;45.91;10.14;100445.53;5051589;28;20086;-62
2023/09/13 06:34:03;;;;;;;15.35;10.73;;;;;;;46.05;10.33;100445.19;5051534;28;20124;-62
2023/09/13 06:36:29;;;;;;;13.90;9.75;;;;;;;46.46;9.90;100440.53;5051267;28;20044;-62
2023/09/13 06:38:55;;;;;;;15.07;9.32;;;;;;;46.84;9.50;100419.50;5050866;28;20025;-64
2023/09/13 06:41:20;;;;;;;14.27;10.40;;;;;;;46.93;9.28;100435.59;5050738;28;20052;-63
2023/09/13 06:43:46;;;;;;;17.98;10.05;;;;;;;47.01;9.24;100437.44;5051312;28;20079;-62
2023/09/13 06:46:12;;;;;;;11.65;9.50;;;;;;;46.76;9.32;100445.13;5051356;28;20052;-62
2023/09/13 06:48:37;;;;;;;15.88;9.98;;;;;;;46.69;9.32;100445.75;5055219;28;20124;-63
2023/09/13 06:51:03;;;;;;;15.00;9.50;;;;;;;47.31;9.03;100431.47;5054334;28;20029;-59
2023/09/13 06:53:29;;;;;;;18.88;9.38;;;;;;;48.08;8.80;100440.91;5054434;28;20068;-60
2023/09/13 06:55:54;;;;;;;18.10;10.10;;;;;;;48.01;8.37;100437.84;5053596;28;20028;-59
2023/09/13 06:58:22;;;;;;;12.90;9.70;;;;;;;47.65;8.87;100440.56;5053198;28;20024;-59
2023/09/13 07:00:47;;;;;;;13.40;10.05;;;;;;;47.42;9.16;100438.28;5053010;28;20119;-59
2023/09/13 07:03:13;;;;;;;15.85;10.90;;;;;;;46.86;9.15;100448.28;5054418;28;20080;-60
2023/09/13 07:05:39;;;;;;;14.48;9.95;;;;;;;47.03;9.26;100414.41;5049138;28;20029;-60
2023/09/13 07:08:04;;;;;;;16.52;10.48;;;;;;;47.56;8.69;100414.31;5050034;28;20055;-57
2023/09/13 07:10:30;;;;;;;10.93;9.20;;;;;;;48.19;8.43;100429.81;5052883;28;20089;-61
2023/09/13 07:12:57;;;;;;;17.92;10.40;;;;;;;48.61;7.99;100434.06;5053282;28;20036;-62
2023/09/13 07:15:23;;;;;;;14.20;10.00;;;;;;;48.47;8.26;100436.56;5053854;28;20049;-60
2023/09/13 07:17:48;;;;;;;14.07;9.80;;;;;;;48.32;8.42;100430.53;5053360;28;20029;-58
2023/09/13 07:20:14;;;;;;;11.05;9.63;;;;;;;48.47;8.31;100442.25;5053274;28;20090;-59
2023/09/13 07:22:39;;;;;;;12.25;9.85;;;;;;;48.74;8.26;100437.63;5053366;28;20037;-60
2023/09/13 07:25:05;;;;;;;10.27;8.63;;;;;;;49.15;7.72;100443.03;5052995;28;20052;-59
2023/09/13 07:27:31;;;;;;;12.07;8.18;;;;;;;49.05;7.98;100429.38;5053657;28;20048;-60
2023/09/13 07:29:56;;;;;;;11.80;8.73;;;;;;;49.02;7.93;100447.19;5053635;28;20033;-60
2023/09/13 07:32:22;;;;;;;11.43;8.00;;;;;;;48.75;7.60;100419.38;5053895;28;20099;-59
2023/09/13 07:34:48;;;;;;;9.27;8.38;;;;;;;48.53;8.07;100450.13;5052427;28;20087;-60
2023/09/13 07:37:13;;;;;;;13.82;7.70;;;;;;;48.18;7.91;100442.34;5050345;28;20051;-61
2023/09/13 07:39:41;;;;;;;8.18;6.03;;;;;;;47.57;8.11;100442.34;5051091;28;20036;-62
2023/09/13 07:42:07;;;;;;;9.88;6.80;;;;;;;46.55;8.46;100446.13;5053456;28;20041;-60
2023/09/13 07:44:33;;;;;;;9.20;7.20;;;;;;;45.63;8.96;100446.13;5051612;28;20108;-61
2023/09/13 07:46:58;;;;;;;8.35;6.10;;;;;;;45.66;8.73;100442.59;5052742;28;20531;-61
2023/09/13 07:49:25;;;;;;;7.75;6.55;;;;;;;45.39;9.13;100442.03;5053073;28;20454;-60
2023/09/13 07:51:51;;;;;;;11.63;7.20;;;;;;;44.63;9.78;100413.63;5052649;28;20086;-61
2023/09/13 07:54:17;;;;;;;13.95;12.13;;;;;;;43.83;9.72;100435.69;5053272;28;20123;-62
2023/09/13 07:56:43;;;;;;;11.75;7.65;;;;;;;41.85;11.09;100439.81;5052500;28;20087;-62
2023/09/13 07:59:13;;;;;;;10.70;7.00;;;;;;;39.09;12.99;100442.63;5052527;28;20097;-63
2023/09/13 08:01:39;;;;;;;6.75;6.15;;;;;;;36.26;15.12;100445.25;5052801;28;20036;-63
2023/09/13 08:04:05;;;;;;;9.18;5.53;;;;;;;33.81;16.80;100431.53;5051666;28;20116;-61
2023/09/13 08:06:31;;;;;;;11.50;6.10;;;;;;;31.76;19.36;100438.59;5051771;28;20055;-63
2023/09/13 08:08:57;;;;;;;10.32;6.30;;;;;;;30.19;21.36;100443.94;5052803;28;20040;-62
2023/09/13 08:11:23;;;;;;;22.00;8.63;;;;;;;28.96;23.37;100436.81;5052010;28;20028;-61
2023/09/13 08:13:49;;;;;;;12.02;8.23;;;;;;;27.69;25.00;100450.69;5052659;28;20178;-64
2023/09/13 08:16:14;;;;;;;18.50;7.57;;;;;;;26.85;26.29;100435.00;5052424;28;20405;-66
2023/09/13 08:18:40;;;;;;;10.60;8.50;;;;;;;26.31;27.22;100437.03;5052646;28;20029;-57
2023/09/13 08:21:05;;;;;;;13.00;7.07;;;;;;;25.85;27.27;100436.81;5052201;28;20120;-60
2023/09/13 08:23:31;;;;;;;11.07;7.40;;;;;;;25.21;27.94;100430.75;5051935;28;20303;-60
2023/09/13 08:25:57;;;;;;;13.57;7.30;;;;;;;24.63;28.88;100431.97;5050300;28;20119;-60
2023/09/13 08:28:23;;;;;;;13.63;6.15;;;;;;;24.10;29.95;100435.19;5052548;28;20485;-62
2023/09/13 08:30:49;;;;;;;9.02;5.85;;;;;;;23.89;29.99;100421.31;5051762;28;20470;-62
2023/09/13 08:33:16;;;;;;;10.32;5.93;;;;;;;23.87;30.12;100437.09;5051957;28;20037;-62
2023/09/13 08:35:44;;;;;;;12.48;6.38;;;;;;;23.95;29.93;100438.81;5051952;28;20025;-56
2023/09/13 08:38:10;;;;;;;17.73;7.03;;;;;;;23.91;30.17;100421.97;5051869;28;20079;-61
2023/09/13 08:40:44;;;;;;;8.73;6.20;;;;;;;24.10;29.98;100429.72;5051058;28;20033;-59
2023/09/13 08:43:11;;;;;;;15.18;7.15;;;;;;;24.02;29.88;100431.56;5050867;28;20035;-62
2023/09/13 08:45:38;;;;;;;10.13;5.57;;;;;;;23.98;29.68;100427.47;5048954;28;20032;-61
2023/09/13 08:48:06;;;;;;;8.88;5.75;;;;;;;24.01;30.08;100426.25;5051458;28;20041;-62
2023/09/13 08:50:34;;;;;;;9.52;5.47;;;;;;;23.85;29.91;100413.69;5051769;28;20036;-63
2023/09/13 08:53:02;;;;;;;11.00;5.75;;;;;;;23.78;29.95;100421.84;5052148;28;20130;-60
2023/09/13 08:55:29;;;;;;;8.25;5.75;;;;;;;23.64;30.67;100424.47;5051513;28;20031;-61
2023/09/13 08:57:59;;;;;;;10.38;6.18;;;;;;;23.69;30.61;100428.50;5051829;28;20428;-61
2023/09/13 09:00:26;;;;;;;10.68;6.57;;;;;;;23.57;30.88;100425.44;5051848;28;20111;-61
2023/09/13 09:02:54;;;;;;;18.45;7.10;;;;;;;23.39;30.76;100424.00;5051803;28;20452;-62
2023/09/13 09:05:25;;;;;;;12.65;6.85;;;;;;;23.14;31.06;100416.13;5050673;28;20033;-63
2023/09/13 09:07:52;;;;;;;11.95;6.32;;;;;;;22.99;31.51;100407.97;5050234;28;20027;-60
2023/09/13 09:10:18;;;;;;;10.45;6.00;;;;;;;23.09;31.72;100411.22;5050390;28;20025;-65
2023/09/13 09:12:48;;;;;;;9.98;6.57;;;;;;;22.88;31.19;100382.00;5051696;28;20129;-63
2023/09/13 09:15:14;;;;;;;10.60;6.40;;;;;;;23.01;30.96;100403.16;5051397;28;20059;-63
2023/09/13 09:17:41;;;;;;;9.48;5.60;;;;;;;23.04;30.37;100407.41;5047719;28;20463;-60
2023/09/13 09:20:07;;;;;;;12.98;7.00;;;;;;;23.10;31.04;100401.16;5051098;28;20094;-61
2023/09/13 09:22:34;;;;;;;9.30;6.95;;;;;;;23.09;31.59;100400.31;5050140;28;20103;-61
2023/09/13 09:25:00;;;;;;;10.35;6.72;;;;;;;23.13;30.67;100408.09;5042022;28;20570;-59
2023/09/13 09:27:26;;;;;;;9.60;6.70;;;;;;;23.18;30.82;100392.00;5049517;28;20336;-62
2023/09/13 09:30:05;;;;;;;11.70;6.85;;;;;;;23.40;30.94;100409.28;5050708;28;20037;-64
2023/09/13 09:32:36;;;;;;;12.02;7.60;;;;;;;23.19;31.26;100371.84;5050853;28;20371;-60
2023/09/13 09:35:04;;;;;;;13.20;7.97;;;;;;;23.31;31.15;100394.06;5050656;28;20078;-60
2023/09/13 09:37:34;;;;;;;12.70;7.65;;;;;;;23.21;31.76;100397.09;5051006;28;20033;-61
2023/09/13 09:40:01;;;;;;;14.32;7.78;;;;;;;23.20;31.78;100398.97;5050453;28;20080;-62
2023/09/13 09:42:29;;;;;;;12.63;8.65;;;;;;;23.06;31.75;100403.44;5050316;28;20064;-57
2023/09/13 09:44:55;;;;;;;17.27;8.40;;;;;;;23.01;32.29;100394.97;5051466;28;20029;-60
2023/09/13 09:47:21;;;;;;;10.10;7.28;;;;;;;22.86;32.14;100372.31;5051216;28;20455;-63
2023/09/13 09:49:47;;;;;;;13.18;7.50;;;;;;;23.01;31.88;100405.03;5049935;28;20032;-60
2023/09/13 09:52:14;;;;;;;11.38;7.60;;;;;;;23.01;31.83;100400.44;5050946;28;20423;-63
2023/09/13 09:54:46;;;;;;;13.18;7.03;;;;;;;22.91;31.95;100384.34;5050786;28;20051;-60
2023/09/13 09:57:18;;;;;;;12.57;6.82;;;;;;;22.93;31.66;100400.56;5051059;28;20143;-61
2023/09/13 09:59:45;;;;;;;9.82;6.55;;;;;;;22.77;31.95;100393.41;5050949;28;20029;-63
2023/09/13 10:02:10;;;;;;;17.73;7.03;;;;;;;22.73;32.17;100403.00;5050859;28;20127;-63
2023/09/13 10:04:47;;;;;;;15.88;6.50;;;;;;;22.74;31.75;100391.91;5051412;28;20033;-64
2023/09/13 10:07:13;;;;;;;11.75;7.50;;;;;;;22.53;31.95;100376.28;5048694;28;20114;-61
2023/09/13 10:09:40;;;;;;;13.05;6.95;;;;;;;22.45;32.24;100404.53;5050468;28;20037;-61
2023/09/13 10:12:07;;;;;;;7.88;6.38;;;;;;;22.36;32.06;100376.47;5049447;28;20060;-60
2023/09/13 10:14:34;;;;;;;13.23;6.90;;;;;;;22.21;32.22;100345.63;5050232;28;20048;-64
2023/09/13 10:17:00;;;;;;;14.25;6.00;;;;;;;22.41;32.28;100377.78;5050680;28;20459;-65
2023/09/13 10:19:29;;;;;;;10.70;6.90;;;;;;;22.46;32.19;100376.22;5050363;28;20032;-60
2023/09/13 10:21:55;;;;;;;17.02;7.05;;;;;;;22.40;32.69;100376.09;5051925;28;20033;-61
2023/09/13 10:24:24;;;;;;;13.70;6.28;;;;;;;22.23;33.09;100381.72;5054112;28;20036;-63
2023/09/13 10:26:53;;;;;;;12.60;6.88;;;;;;;22.28;32.58;100381.19;5053281;28;20025;-61
2023/09/13 10:29:31;;;;;;;9.00;6.03;;;;;;;22.22;32.40;100353.63;5037230;28;20033;-58
2023/09/13 10:32:02;;;;;;;7.50;6.03;;;;;;;22.48;32.11;100384.22;5053666;28;20029;-62
2023/09/13 10:34:29;;;;;;;8.63;5.80;;;;;;;22.24;32.40;100377.97;5053815;28;20127;-62
2023/09/13 10:37:08;;;;;;;8.45;5.28;;;;;;;22.16;32.59;100381.63;5053282;28;20025;-62
2023/09/13 10:39:42;;;;;;;8.25;5.70;;;;;;;22.16;32.55;100387.06;5053470;28;20357;-62
2023/09/13 10:42:08;;;;;;;11.00;5.47;;;;;;;22.13;32.89;100371.09;5053523;28;20462;-62
2023/09/13 10:44:35;;;;;;;8.23;5.75;;;;;;;22.17;33.10;100372.41;5052447;28;20082;-60
2023/09/13 10:47:03;;;;;;;9.88;5.78;;;;;;;22.07;33.03;100339.13;5054383;28;20028;-63
2023/09/13 10:49:29;;;;;;;12.68;6.32;;;;;;;22.28;32.91;100367.53;5054238;28;20112;-62
2023/09/13 10:51:58;;;;;;;10.23;5.63;;;;;;;22.06;32.93;100351.06;5053604;28;20367;-64
2023/09/13 10:54:25;;;;;;;9.38;5.40;;;;;;;22.18;33.35;100379.56;5052445;28;20050;-63
2023/09/13 10:56:51;;;;;;;7.75;5.20;;;;;;;21.94;33.32;100334.31;5052798;28;20119;-64
2023/09/13 10:59:22;;;;;;;10.07;5.32;;;;;;;22.18;33.17;100378.72;5052554;28;20110;-60
2023/09/13 11:01:47;;;;;;;10.15;5.30;;;;;;;22.13;33.01;100362.91;5051010;28;20119;-61
2023/09/13 11:04:19;;;;;;;7.60;5.50;;;;;;;22.18;32.76;100374.09;5054406;28;20176;-62
2023/09/13 11:06:45;;;;;;;8.85;5.60;;;;;;;22.03;32.73;100367.81;5053034;28;20029;-63
2023/09/13 11:09:16;;;;;;;9.85;5.57;;;;;;;22.05;33.33;100357.56;5052789;28;20145;-63
2023/09/13 11:11:47;;;;;;;5.80;4.95;;;;;;;22.17;33.19;100374.31;5033131;28;20046;-66
2023/09/13 11:14:17;;;;;;;7.82;5.22;;;;;;;22.17;32.87;100372.41;5037963;28;20106;-65